createdAt,value
2022-10-05T00:00:06.096Z,85.80
2022-10-05T00:00:15.532Z,86.10
2022-10-05T00:00:24.943Z,86.40
2022-10-05T00:00:34.364Z,86.70
2022-10-05T00:00:43.829Z,86.80
2022-10-05T00:00:53.239Z,87.00
2022-10-05T00:01:02.656Z,87.30
2022-10-05T00:01:12.122Z,87.60
2022-10-05T00:01:21.638Z,87.80
2022-10-05T00:01:31.068Z,88.00
2022-10-05T00:01:40.510Z,88.30
2022-10-05T00:01:49.857Z,88.50
2022-10-05T00:01:59.312Z,88.70
2022-10-05T00:02:08.753Z,89.00
2022-10-05T00:02:18.067Z,89.30
2022-10-05T00:02:27.484Z,89.30
2022-10-05T00:02:36.935Z,89.40
2022-10-05T00:02:46.355Z,89.50
2022-10-05T00:03:05.193Z,90.00
2022-10-05T00:03:14.598Z,90.10
2022-10-05T00:03:24.003Z,90.20
2022-10-05T00:03:33.448Z,90.30
2022-10-05T00:03:42.858Z,90.30
2022-10-05T00:03:52.298Z,90.40
2022-10-05T00:04:01.726Z,90.50
2022-10-05T00:04:11.177Z,90.60
2022-10-05T00:04:20.482Z,90.60
2022-10-05T00:04:29.883Z,90.70
2022-10-05T00:04:39.431Z,90.70
2022-10-05T00:04:48.782Z,90.80
2022-10-05T00:04:58.189Z,91.00
2022-10-05T00:05:07.613Z,91.10
2022-10-05T00:05:17.068Z,91.20
2022-10-05T00:05:26.485Z,91.30
2022-10-05T00:05:45.238Z,91.40
2022-10-05T00:05:54.660Z,91.50
2022-10-05T00:06:04.055Z,91.60
2022-10-05T00:06:13.485Z,91.60
2022-10-05T00:06:22.896Z,91.70
2022-10-05T00:06:32.304Z,91.80
2022-10-05T00:06:41.710Z,91.90
2022-10-05T00:06:51.131Z,91.90
2022-10-05T00:07:00.554Z,92.00
2022-10-05T00:07:09.978Z,92.00
2022-10-05T00:07:19.390Z,92.10
2022-10-05T00:07:28.799Z,92.20
2022-10-05T00:07:38.223Z,92.30
2022-10-05T00:07:47.649Z,92.30
2022-10-05T00:07:57.096Z,92.40
2022-10-05T00:08:06.492Z,92.50
2022-10-05T00:08:25.315Z,92.70
2022-10-05T00:08:34.736Z,92.80
2022-10-05T00:08:44.243Z,92.80
2022-10-05T00:08:53.715Z,92.90
2022-10-05T00:09:03.188Z,92.90
2022-10-05T00:09:12.660Z,93.00
2022-10-05T00:09:22.109Z,93.10
2022-10-05T00:09:31.562Z,93.20
2022-10-05T00:09:40.958Z,93.20
2022-10-05T00:09:50.375Z,93.30
2022-10-05T00:09:59.813Z,93.30
2022-10-05T00:10:09.270Z,93.40
2022-10-05T00:10:18.752Z,93.40
2022-10-05T00:10:28.320Z,93.50
2022-10-05T00:10:37.741Z,93.50
2022-10-05T00:10:47.173Z,93.50
2022-10-05T00:10:56.656Z,93.60
2022-10-05T00:11:15.511Z,93.70
2022-10-05T00:11:24.931Z,93.70
2022-10-05T00:11:34.431Z,93.80
2022-10-05T00:11:43.869Z,93.80
2022-10-05T00:11:53.299Z,93.80
2022-10-05T00:12:02.744Z,93.90
2022-10-05T00:12:12.163Z,93.90
2022-10-05T00:12:21.659Z,93.90
2022-10-05T00:12:31.077Z,94.00
2022-10-05T00:12:40.526Z,94.00
2022-10-05T00:12:49.957Z,94.00
2022-10-05T00:12:59.381Z,94.20
2022-10-05T00:13:08.795Z,94.30
2022-10-05T00:13:18.210Z,94.30
2022-10-05T00:13:27.654Z,94.30
2022-10-05T00:13:37.075Z,94.40
2022-10-05T00:13:46.486Z,94.50
2022-10-05T00:14:05.400Z,94.50
2022-10-05T00:14:14.848Z,94.60
2022-10-05T00:14:24.288Z,94.70
2022-10-05T00:14:33.685Z,94.70
2022-10-05T00:14:43.269Z,94.70
2022-10-05T00:14:52.719Z,94.80
2022-10-05T00:15:02.182Z,94.90
2022-10-05T00:15:11.527Z,95.00
2022-10-05T00:15:20.923Z,95.00
2022-10-05T00:15:30.334Z,95.10
2022-10-05T00:15:39.739Z,95.20
2022-10-05T00:15:49.145Z,95.20
2022-10-05T00:15:58.634Z,95.30
2022-10-05T00:16:08.126Z,95.30
2022-10-05T00:16:17.514Z,95.40
2022-10-05T00:16:27.030Z,95.40
2022-10-05T00:16:36.397Z,95.50
2022-10-05T00:16:55.294Z,95.50
2022-10-05T00:17:04.764Z,95.50
2022-10-05T00:17:14.067Z,95.50
2022-10-05T00:17:23.486Z,95.60
2022-10-05T00:17:32.924Z,95.70
2022-10-05T00:17:42.370Z,95.70
2022-10-05T00:17:51.810Z,95.70
2022-10-05T00:18:01.212Z,95.70
2022-10-05T00:18:10.621Z,95.80
2022-10-05T00:18:20.044Z,95.90
2022-10-05T00:18:29.505Z,95.90
2022-10-05T00:18:38.925Z,95.90
2022-10-05T00:18:48.313Z,96.10
2022-10-05T00:18:57.727Z,96.10
2022-10-05T00:19:07.117Z,96.10
2022-10-05T00:19:16.536Z,96.10
2022-10-05T00:19:35.329Z,96.10
2022-10-05T00:19:44.745Z,96.00
2022-10-05T00:19:54.181Z,95.90
2022-10-05T00:20:03.571Z,95.90
2022-10-05T00:20:12.992Z,95.80
2022-10-05T00:20:22.397Z,95.90
2022-10-05T00:20:31.787Z,95.90
2022-10-05T00:20:41.192Z,95.70
2022-10-05T00:20:50.611Z,95.60
2022-10-05T00:21:00.027Z,95.40
2022-10-05T00:21:09.427Z,95.30
2022-10-05T00:21:18.838Z,95.20
2022-10-05T00:21:28.253Z,95.10
2022-10-05T00:21:37.641Z,94.90
2022-10-05T00:21:47.033Z,94.80
2022-10-05T00:21:56.441Z,94.70
2022-10-05T00:22:15.254Z,94.30
2022-10-05T00:22:24.650Z,94.20
2022-10-05T00:22:34.124Z,94.10
2022-10-05T00:22:43.514Z,94.00
2022-10-05T00:22:52.912Z,93.80
2022-10-05T00:23:02.336Z,93.70
2022-10-05T00:23:11.720Z,93.60
2022-10-05T00:23:21.122Z,93.40
2022-10-05T00:23:30.521Z,93.30
2022-10-05T00:23:39.916Z,93.30
2022-10-05T00:23:49.330Z,93.10
2022-10-05T00:23:58.750Z,93.00
2022-10-05T00:24:08.144Z,92.80
2022-10-05T00:24:17.548Z,92.80
2022-10-05T00:24:26.940Z,92.60
2022-10-05T00:24:36.334Z,92.50
2022-10-05T00:24:55.131Z,92.40
2022-10-05T00:25:04.545Z,92.30
2022-10-05T00:25:13.950Z,92.20
2022-10-05T00:25:23.340Z,92.00
2022-10-05T00:25:32.728Z,91.80
2022-10-05T00:25:42.129Z,91.70
2022-10-05T00:25:51.536Z,91.50
2022-10-05T00:26:00.958Z,91.40
2022-10-05T00:26:10.379Z,91.30
2022-10-05T00:26:19.814Z,91.30
2022-10-05T00:26:29.216Z,91.10
2022-10-05T00:26:38.637Z,91.00
2022-10-05T00:26:48.957Z,90.90
2022-10-05T00:26:58.340Z,90.80
2022-10-05T00:27:06.913Z,90.60
2022-10-05T00:27:16.330Z,90.60
2022-10-05T00:27:26.263Z,90.50
2022-10-05T00:27:45.092Z,90.30
2022-10-05T00:27:54.508Z,90.30
2022-10-05T00:28:04.013Z,90.30
2022-10-05T00:28:13.364Z,90.30
2022-10-05T00:28:22.884Z,90.30
2022-10-05T00:28:32.226Z,90.20
2022-10-05T00:28:41.533Z,90.30
2022-10-05T00:28:50.959Z,90.40
2022-10-05T00:29:00.369Z,90.40
2022-10-05T00:29:09.794Z,90.40
2022-10-05T00:29:19.214Z,90.50
2022-10-05T00:29:28.667Z,90.50
2022-10-05T00:29:38.081Z,90.50
2022-10-05T00:29:47.487Z,90.60
2022-10-05T00:29:56.916Z,90.60
2022-10-05T00:30:06.425Z,90.70
2022-10-05T00:30:25.151Z,90.80
2022-10-05T00:30:34.571Z,90.90
2022-10-05T00:30:44.041Z,90.90
2022-10-05T00:30:53.461Z,91.00
2022-10-05T00:31:02.886Z,91.10
2022-10-05T00:31:12.377Z,91.10
2022-10-05T00:31:21.819Z,91.20
2022-10-05T00:31:31.202Z,91.20
2022-10-05T00:31:40.668Z,91.30
2022-10-05T00:31:50.069Z,91.30
2022-10-05T00:31:59.496Z,91.30
2022-10-05T00:32:08.878Z,91.40
2022-10-05T00:32:18.224Z,91.40
2022-10-05T00:32:27.732Z,91.50
2022-10-05T00:32:37.154Z,91.50
2022-10-05T00:32:46.575Z,91.60
2022-10-05T00:33:05.397Z,91.70
2022-10-05T00:33:14.811Z,91.70
2022-10-05T00:33:24.198Z,91.80
2022-10-05T00:33:33.610Z,91.90
2022-10-05T00:33:43.035Z,92.00
2022-10-05T00:33:52.460Z,92.00
2022-10-05T00:34:02.110Z,92.10
2022-10-05T00:34:11.516Z,92.20
2022-10-05T00:34:20.942Z,92.20
2022-10-05T00:34:30.341Z,92.30
2022-10-05T00:34:39.749Z,92.30
2022-10-05T00:34:49.177Z,92.40
2022-10-05T00:34:58.589Z,92.40
2022-10-05T00:35:08.002Z,92.50
2022-10-05T00:35:17.416Z,92.60
2022-10-05T00:35:26.849Z,92.60
2022-10-05T00:35:36.260Z,92.70
2022-10-05T00:35:55.094Z,92.80
2022-10-05T00:36:04.514Z,92.80
2022-10-05T00:36:13.965Z,92.90
2022-10-05T00:36:23.372Z,93.00
2022-10-05T00:36:32.799Z,93.00
2022-10-05T00:36:42.214Z,93.10
2022-10-05T00:36:51.614Z,93.20
2022-10-05T00:37:01.027Z,93.30
2022-10-05T00:37:10.447Z,93.30
2022-10-05T00:37:19.895Z,93.40
2022-10-05T00:37:29.312Z,93.40
2022-10-05T00:37:38.718Z,93.50
2022-10-05T00:37:48.142Z,93.60
2022-10-05T00:37:57.580Z,93.70
2022-10-05T00:38:07.006Z,93.80
2022-10-05T00:38:16.436Z,93.80
2022-10-05T00:38:35.257Z,93.90
2022-10-05T00:38:44.653Z,94.00
2022-10-05T00:38:54.051Z,94.00
2022-10-05T00:39:03.477Z,94.00
2022-10-05T00:39:12.885Z,94.10
2022-10-05T00:39:22.311Z,94.10
2022-10-05T00:39:31.727Z,94.10
2022-10-05T00:39:41.157Z,94.20
2022-10-05T00:39:50.586Z,94.30
2022-10-05T00:39:59.990Z,94.30
2022-10-05T00:40:09.415Z,94.40
2022-10-05T00:40:18.832Z,94.40
2022-10-05T00:40:28.262Z,94.50
2022-10-05T00:40:37.728Z,94.60
2022-10-05T00:40:47.159Z,94.70
2022-10-05T00:40:56.568Z,94.70
2022-10-05T00:41:15.425Z,94.80
2022-10-05T00:41:24.836Z,94.80
2022-10-05T00:41:34.259Z,94.90
2022-10-05T00:41:43.662Z,95.00
2022-10-05T00:41:53.089Z,95.00
2022-10-05T00:42:02.532Z,95.10
2022-10-05T00:42:11.943Z,95.10
2022-10-05T00:42:21.383Z,95.10
2022-10-05T00:42:30.809Z,95.10
2022-10-05T00:42:40.199Z,95.10
2022-10-05T00:42:49.614Z,95.20
2022-10-05T00:42:59.044Z,95.20
2022-10-05T00:43:11.160Z,95.20
2022-10-05T00:43:20.593Z,95.20
2022-10-05T00:43:30.020Z,95.30
2022-10-05T00:43:39.433Z,95.40
2022-10-05T00:43:48.855Z,95.50
2022-10-05T00:43:58.249Z,95.50
2022-10-05T00:44:07.664Z,95.60
2022-10-05T00:44:17.072Z,95.50
2022-10-05T00:44:26.485Z,95.60
2022-10-05T00:44:45.309Z,95.70
2022-10-05T00:44:54.726Z,95.80
2022-10-05T00:45:04.144Z,95.90
2022-10-05T00:45:13.592Z,95.90
2022-10-05T00:45:22.974Z,95.90
2022-10-05T00:45:32.487Z,96.00
2022-10-05T00:45:41.907Z,96.10
2022-10-05T00:45:51.361Z,96.10
2022-10-05T00:46:00.763Z,96.10
2022-10-05T00:46:10.250Z,96.10
2022-10-05T00:46:19.599Z,96.10
2022-10-05T00:46:28.949Z,96.20
2022-10-05T00:46:38.372Z,96.20
2022-10-05T00:46:48.165Z,96.30
2022-10-05T00:46:57.224Z,96.30
2022-10-05T00:47:06.653Z,96.30
2022-10-05T00:47:25.512Z,96.40
2022-10-05T00:47:34.948Z,96.50
2022-10-05T00:47:44.343Z,96.50
2022-10-05T00:47:53.760Z,96.60
2022-10-05T00:48:03.180Z,96.60
2022-10-05T00:48:12.582Z,96.70
2022-10-05T00:48:22.023Z,96.70
2022-10-05T00:48:31.438Z,96.70
2022-10-05T00:48:40.853Z,96.70
2022-10-05T00:48:50.269Z,96.70
2022-10-05T00:48:59.685Z,96.70
2022-10-05T00:49:09.111Z,96.70
2022-10-05T00:49:18.531Z,96.80
2022-10-05T00:49:27.964Z,96.80
2022-10-05T00:49:37.379Z,96.80
2022-10-05T00:49:46.792Z,96.80
2022-10-05T00:49:56.197Z,96.70
2022-10-05T00:50:15.027Z,96.80
2022-10-05T00:50:24.436Z,96.80
2022-10-05T00:50:33.849Z,96.90
2022-10-05T00:50:43.275Z,96.90
2022-10-05T00:50:52.714Z,96.90
2022-10-05T00:51:02.125Z,97.00
2022-10-05T00:51:11.535Z,97.00
2022-10-05T00:51:20.978Z,96.90
2022-10-05T00:51:30.451Z,96.90
2022-10-05T00:51:39.865Z,97.10
2022-10-05T00:51:49.267Z,97.10
2022-10-05T00:51:58.678Z,97.20
2022-10-05T00:52:08.102Z,97.20
2022-10-05T00:52:17.515Z,97.30
2022-10-05T00:52:26.957Z,97.30
2022-10-05T00:52:36.387Z,97.20
2022-10-05T00:52:55.227Z,97.10
2022-10-05T00:53:04.657Z,97.00
2022-10-05T00:53:14.083Z,96.90
2022-10-05T00:53:23.479Z,96.80
2022-10-05T00:53:32.899Z,96.70
2022-10-05T00:53:42.303Z,96.60
2022-10-05T00:53:51.709Z,96.50
2022-10-05T00:54:01.112Z,96.50
2022-10-05T00:54:13.641Z,96.50
2022-10-05T00:54:19.921Z,96.40
2022-10-05T00:54:29.334Z,96.30
2022-10-05T00:54:38.746Z,96.10
2022-10-05T00:54:48.158Z,96.00
2022-10-05T00:54:57.565Z,95.90
2022-10-05T00:55:06.958Z,95.80
2022-10-05T00:55:16.377Z,95.70
2022-10-05T00:55:35.217Z,95.40
2022-10-05T00:55:44.645Z,95.30
2022-10-05T00:55:54.060Z,95.10
2022-10-05T00:56:03.451Z,94.90
2022-10-05T00:56:12.853Z,94.70
2022-10-05T00:56:22.216Z,94.50
2022-10-05T00:56:31.648Z,94.30
2022-10-05T00:56:41.046Z,94.30
2022-10-05T00:56:50.438Z,94.10
2022-10-05T00:56:59.820Z,94.00
2022-10-05T00:57:09.206Z,93.90
2022-10-05T00:57:18.651Z,93.90
2022-10-05T00:57:28.063Z,93.80
2022-10-05T00:57:37.505Z,93.50
2022-10-05T00:57:46.902Z,93.40
2022-10-05T00:57:56.325Z,93.20
2022-10-05T00:58:15.168Z,92.90
2022-10-05T00:58:24.585Z,92.70
2022-10-05T00:58:33.970Z,92.60
2022-10-05T00:58:43.358Z,92.50
2022-10-05T00:58:52.749Z,92.50
2022-10-05T00:59:02.157Z,92.30
2022-10-05T00:59:11.567Z,92.20
2022-10-05T00:59:20.992Z,92.20
2022-10-05T00:59:30.395Z,92.00
2022-10-05T00:59:39.811Z,91.90
2022-10-05T00:59:49.209Z,91.80
2022-10-05T00:59:58.648Z,91.70
2022-10-05T01:00:08.066Z,91.60
2022-10-05T01:00:17.508Z,91.50
2022-10-05T01:00:26.893Z,91.40
2022-10-05T01:00:36.292Z,91.30
2022-10-05T01:00:55.109Z,91.10
2022-10-05T01:01:04.567Z,91.10
2022-10-05T01:01:14.037Z,91.10
2022-10-05T01:01:23.382Z,91.00
2022-10-05T01:01:32.817Z,90.80
2022-10-05T01:01:42.124Z,90.80
2022-10-05T01:01:51.604Z,90.70
2022-10-05T01:02:01.036Z,90.60
2022-10-05T01:02:10.380Z,90.50
2022-10-05T01:02:19.868Z,90.60
2022-10-05T01:02:33.013Z,90.50
2022-10-05T01:02:38.609Z,90.40
2022-10-05T01:02:48.041Z,90.20
2022-10-05T01:02:57.384Z,90.20
2022-10-05T01:03:06.813Z,90.00
2022-10-05T01:03:16.227Z,89.80
2022-10-05T01:03:35.022Z,89.70
2022-10-05T01:03:44.445Z,89.60
2022-10-05T01:03:53.855Z,89.60
2022-10-05T01:04:03.267Z,89.60
2022-10-05T01:04:12.679Z,89.30
2022-10-05T01:04:22.088Z,89.20
2022-10-05T01:04:31.475Z,89.10
2022-10-05T01:04:40.878Z,88.80
2022-10-05T01:04:50.295Z,88.60
2022-10-05T01:04:59.709Z,88.40
2022-10-05T01:05:09.113Z,88.30
2022-10-05T01:05:18.535Z,88.20
2022-10-05T01:05:27.939Z,88.10
2022-10-05T01:05:37.332Z,87.80
2022-10-05T01:05:46.751Z,87.70
2022-10-05T01:05:56.173Z,87.70
2022-10-05T01:06:15.020Z,87.70
2022-10-05T01:06:24.439Z,87.60
2022-10-05T01:06:33.830Z,87.40
2022-10-05T01:06:43.553Z,87.20
2022-10-05T01:06:52.643Z,87.10
2022-10-05T01:07:02.036Z,87.10
2022-10-05T01:07:11.439Z,87.00
2022-10-05T01:07:20.887Z,86.90
2022-10-05T01:07:30.280Z,87.00
2022-10-05T01:07:39.689Z,86.80
2022-10-05T01:07:49.075Z,86.80
2022-10-05T01:07:58.487Z,86.70
2022-10-05T01:08:07.903Z,86.40
2022-10-05T01:08:17.316Z,86.40
2022-10-05T01:08:26.731Z,86.20
2022-10-05T01:08:36.131Z,86.10
2022-10-05T01:08:54.953Z,85.80
2022-10-05T01:09:04.345Z,85.70
2022-10-05T01:09:13.749Z,85.60
2022-10-05T01:09:23.158Z,85.60
2022-10-05T01:09:32.563Z,85.60
2022-10-05T01:09:41.997Z,85.60
2022-10-05T01:09:51.429Z,85.60
2022-10-05T01:10:00.868Z,85.50
2022-10-05T01:10:10.276Z,85.60
2022-10-05T01:10:19.700Z,85.50
2022-10-05T01:10:29.101Z,85.50
2022-10-05T01:10:38.514Z,85.40
2022-10-05T01:10:47.915Z,85.40
2022-10-05T01:10:57.312Z,85.50
2022-10-05T01:11:06.730Z,85.40
2022-10-05T01:11:16.138Z,85.40
2022-10-05T01:11:34.921Z,85.20
2022-10-05T01:11:44.313Z,85.30
2022-10-05T01:11:53.789Z,85.20
2022-10-05T01:12:03.183Z,85.20
2022-10-05T01:12:12.584Z,85.20
2022-10-05T01:12:22.022Z,85.10
2022-10-05T01:12:31.442Z,85.20
2022-10-05T01:12:40.878Z,85.10
2022-10-05T01:12:50.295Z,85.10
2022-10-05T01:12:59.707Z,85.10
2022-10-05T01:13:09.113Z,85.10
2022-10-05T01:13:18.537Z,85.20
2022-10-05T01:13:27.960Z,85.20
2022-10-05T01:13:37.392Z,85.10
2022-10-05T01:13:46.792Z,85.10
2022-10-05T01:13:56.201Z,85.00
2022-10-05T01:14:15.045Z,85.00
2022-10-05T01:14:24.447Z,84.80
2022-10-05T01:14:33.841Z,84.80
2022-10-05T01:14:43.250Z,84.80
2022-10-05T01:14:52.656Z,84.70
2022-10-05T01:15:02.078Z,84.70
2022-10-05T01:15:11.494Z,84.70
2022-10-05T01:15:20.927Z,84.60
2022-10-05T01:15:30.337Z,84.50
2022-10-05T01:15:39.746Z,84.40
2022-10-05T01:15:49.151Z,84.20
2022-10-05T01:15:58.561Z,84.20
2022-10-05T01:16:08.017Z,84.30
2022-10-05T01:16:17.463Z,84.30
2022-10-05T01:16:26.898Z,84.10
2022-10-05T01:16:36.293Z,84.10
2022-10-05T01:16:55.064Z,84.00
2022-10-05T01:17:04.443Z,84.00
2022-10-05T01:17:13.839Z,84.00
2022-10-05T01:17:23.269Z,84.00
2022-10-05T01:17:32.657Z,84.00
2022-10-05T01:17:42.061Z,84.00
2022-10-05T01:17:51.506Z,84.10
2022-10-05T01:18:00.921Z,84.10
2022-10-05T01:18:10.329Z,84.10
2022-10-05T01:18:19.891Z,84.00
2022-10-05T01:18:29.294Z,83.90
2022-10-05T01:18:38.723Z,83.90
2022-10-05T01:18:48.128Z,83.80
2022-10-05T01:18:57.529Z,83.90
2022-10-05T01:19:06.930Z,83.90
2022-10-05T01:19:16.363Z,83.90
2022-10-05T01:19:35.179Z,83.90
2022-10-05T01:19:44.597Z,83.80
2022-10-05T01:19:54.019Z,83.80
2022-10-05T01:20:03.425Z,83.80
2022-10-05T01:20:12.873Z,83.80
2022-10-05T01:20:22.254Z,83.90
2022-10-05T01:20:31.657Z,83.80
2022-10-05T01:20:41.052Z,83.70
2022-10-05T01:20:50.442Z,83.60
2022-10-05T01:20:59.834Z,83.60
2022-10-05T01:21:09.225Z,83.50
2022-10-05T01:21:18.633Z,83.50
2022-10-05T01:21:28.013Z,83.30
2022-10-05T01:21:37.418Z,83.30
2022-10-05T01:21:46.836Z,83.30
2022-10-05T01:21:56.279Z,83.30
2022-10-05T01:22:15.083Z,83.20
2022-10-05T01:22:24.507Z,83.20
2022-10-05T01:22:33.927Z,83.20
2022-10-05T01:22:43.319Z,83.10
2022-10-05T01:22:52.715Z,83.10
2022-10-05T01:23:02.122Z,83.10
2022-10-05T01:23:11.525Z,83.10
2022-10-05T01:23:20.924Z,82.90
2022-10-05T01:23:30.325Z,83.00
2022-10-05T01:23:39.742Z,83.00
2022-10-05T01:23:49.141Z,83.00
2022-10-05T01:23:58.551Z,83.10
2022-10-05T01:24:07.963Z,83.10
2022-10-05T01:24:17.383Z,83.10
2022-10-05T01:24:26.806Z,83.10
2022-10-05T01:24:36.203Z,83.10
2022-10-05T01:24:55.055Z,83.10
2022-10-05T01:25:04.477Z,83.10
2022-10-05T01:25:13.896Z,83.00
2022-10-05T01:25:23.299Z,82.90
2022-10-05T01:25:32.704Z,82.90
2022-10-05T01:25:42.099Z,82.90
2022-10-05T01:25:51.515Z,82.80
2022-10-05T01:26:00.923Z,82.80
2022-10-05T01:26:10.378Z,82.70
2022-10-05T01:26:19.778Z,82.70
2022-10-05T01:26:29.186Z,82.60
2022-10-05T01:26:38.586Z,82.70
2022-10-05T01:26:48.355Z,82.70
2022-10-05T01:26:57.400Z,82.70
2022-10-05T01:27:06.796Z,82.70
2022-10-05T01:27:16.192Z,82.80
2022-10-05T01:27:35.063Z,82.80
2022-10-05T01:27:44.464Z,82.80
2022-10-05T01:27:53.919Z,82.90
2022-10-05T01:28:03.372Z,82.90
2022-10-05T01:28:12.786Z,82.90
2022-10-05T01:28:22.261Z,82.90
2022-10-05T01:28:31.686Z,82.90
2022-10-05T01:28:41.046Z,82.90
2022-10-05T01:28:50.465Z,82.90
2022-10-05T01:28:59.872Z,82.90
2022-10-05T01:29:09.284Z,82.80
2022-10-05T01:29:18.671Z,82.80
2022-10-05T01:29:28.077Z,82.80
2022-10-05T01:29:37.466Z,82.70
2022-10-05T01:29:46.904Z,82.60
2022-10-05T01:29:56.295Z,82.60
2022-10-05T01:30:15.136Z,82.60
2022-10-05T01:30:24.565Z,82.60
2022-10-05T01:30:33.970Z,82.60
2022-10-05T01:30:43.379Z,82.60
2022-10-05T01:30:52.785Z,82.60
2022-10-05T01:31:02.188Z,82.60
2022-10-05T01:31:11.609Z,82.60
2022-10-05T01:31:21.042Z,82.60
2022-10-05T01:31:30.424Z,82.50
2022-10-05T01:31:42.305Z,82.60
2022-10-05T01:31:51.739Z,82.60
2022-10-05T01:32:01.047Z,82.70
2022-10-05T01:32:10.446Z,82.70
2022-10-05T01:32:19.857Z,82.70
2022-10-05T01:32:29.284Z,82.70
2022-10-05T01:32:38.688Z,82.70
2022-10-05T01:32:48.069Z,82.70
2022-10-05T01:32:57.489Z,82.60
2022-10-05T01:33:06.921Z,82.60
2022-10-05T01:33:16.342Z,82.80
2022-10-05T01:33:35.186Z,82.80
2022-10-05T01:33:44.594Z,82.80
2022-10-05T01:33:53.998Z,82.80
2022-10-05T01:34:06.701Z,82.80
2022-10-05T01:34:12.796Z,82.80
2022-10-05T01:34:22.187Z,82.80
2022-10-05T01:34:31.583Z,82.80
2022-10-05T01:34:40.965Z,82.70
2022-10-05T01:34:50.380Z,82.60
2022-10-05T01:34:59.771Z,82.60
2022-10-05T01:35:09.184Z,82.60
2022-10-05T01:35:18.586Z,82.50
2022-10-05T01:35:27.996Z,82.50
2022-10-05T01:35:37.409Z,82.50
2022-10-05T01:35:46.817Z,82.50
2022-10-05T01:35:56.224Z,82.50
2022-10-05T01:36:15.058Z,82.40
2022-10-05T01:36:24.483Z,82.50
2022-10-05T01:36:33.906Z,82.40
2022-10-05T01:36:43.526Z,82.30
2022-10-05T01:36:52.712Z,82.10
2022-10-05T01:37:02.097Z,82.10
2022-10-05T01:37:11.510Z,82.10
2022-10-05T01:37:20.918Z,82.10
2022-10-05T01:37:30.376Z,82.10
2022-10-05T01:37:39.776Z,82.10
2022-10-05T01:37:49.177Z,82.10
2022-10-05T01:37:58.580Z,82.00
2022-10-05T01:38:07.982Z,82.00
2022-10-05T01:38:17.397Z,81.90
2022-10-05T01:38:26.795Z,81.90
2022-10-05T01:38:36.205Z,81.80
2022-10-05T01:38:55.025Z,81.80
2022-10-05T01:39:04.428Z,81.80
2022-10-05T01:39:13.830Z,81.70
2022-10-05T01:39:23.229Z,81.80
2022-10-05T01:39:32.655Z,81.80
2022-10-05T01:39:42.085Z,81.90
2022-10-05T01:39:51.496Z,81.70
2022-10-05T01:40:00.918Z,81.80
2022-10-05T01:40:10.340Z,81.70
2022-10-05T01:40:19.771Z,81.70
2022-10-05T01:40:29.186Z,81.70
2022-10-05T01:40:38.604Z,81.70
2022-10-05T01:40:48.029Z,81.70
2022-10-05T01:40:57.453Z,81.60
2022-10-05T01:41:06.866Z,81.60
2022-10-05T01:41:16.307Z,81.60
2022-10-05T01:41:35.130Z,81.60
2022-10-05T01:41:44.551Z,81.60
2022-10-05T01:41:53.971Z,81.60
2022-10-05T01:42:03.372Z,81.60
2022-10-05T01:42:12.785Z,81.70
2022-10-05T01:42:22.182Z,81.70
2022-10-05T01:42:35.932Z,81.80
2022-10-05T01:42:45.350Z,81.90
2022-10-05T01:42:54.772Z,82.20
2022-10-05T01:43:04.183Z,82.30
2022-10-05T01:43:13.657Z,82.50
2022-10-05T01:43:23.069Z,82.70
2022-10-05T01:43:32.497Z,82.90
2022-10-05T01:43:41.902Z,83.10
2022-10-05T01:43:51.332Z,83.20
2022-10-05T01:44:00.745Z,83.40
2022-10-05T01:44:10.161Z,83.60
2022-10-05T01:44:19.554Z,83.80
2022-10-05T01:44:28.967Z,84.00
2022-10-05T01:44:38.396Z,84.30
2022-10-05T01:44:47.851Z,84.50
2022-10-05T01:44:57.259Z,84.70
2022-10-05T01:45:06.661Z,84.90
2022-10-05T01:45:25.477Z,85.40
2022-10-05T01:45:35.114Z,85.60
2022-10-05T01:45:44.362Z,85.90
2022-10-05T01:45:53.790Z,86.10
2022-10-05T01:46:03.230Z,86.40
2022-10-05T01:46:12.609Z,86.50
2022-10-05T01:46:22.081Z,86.70
2022-10-05T01:46:31.419Z,86.90
2022-10-05T01:46:40.832Z,87.10
2022-10-05T01:46:50.270Z,87.40
2022-10-05T01:46:59.680Z,87.60
2022-10-05T01:47:09.082Z,87.90
2022-10-05T01:47:18.517Z,88.20
2022-10-05T01:47:27.937Z,88.40
2022-10-05T01:47:37.363Z,88.60
2022-10-05T01:47:46.790Z,88.80
2022-10-05T01:47:56.199Z,88.90
2022-10-05T01:48:15.050Z,89.50
2022-10-05T01:48:24.445Z,89.60
2022-10-05T01:48:33.875Z,89.90
2022-10-05T01:48:43.284Z,90.00
2022-10-05T01:48:52.687Z,90.10
2022-10-05T01:49:02.089Z,90.20
2022-10-05T01:49:11.508Z,90.30
2022-10-05T01:49:20.929Z,90.40
2022-10-05T01:49:30.317Z,90.50
2022-10-05T01:49:39.731Z,90.50
2022-10-05T01:49:49.151Z,90.70
2022-10-05T01:49:58.543Z,90.80
2022-10-05T01:50:07.955Z,90.90
2022-10-05T01:50:17.375Z,91.00
2022-10-05T01:50:26.793Z,91.10
2022-10-05T01:50:36.219Z,91.10
2022-10-05T01:50:55.053Z,91.30
2022-10-05T01:51:04.453Z,91.40
2022-10-05T01:51:13.874Z,91.50
2022-10-05T01:51:23.283Z,91.60
2022-10-05T01:51:32.766Z,91.70
2022-10-05T01:51:42.170Z,91.80
2022-10-05T01:51:51.583Z,91.90
2022-10-05T01:52:01.008Z,92.00
2022-10-05T01:52:10.426Z,92.10
2022-10-05T01:52:19.844Z,92.10
2022-10-05T01:52:29.259Z,92.10
2022-10-05T01:52:38.701Z,92.20
2022-10-05T01:52:48.110Z,92.30
2022-10-05T01:52:57.529Z,92.40
2022-10-05T01:53:06.944Z,92.50
2022-10-05T01:53:16.374Z,92.60
2022-10-05T01:53:35.207Z,92.60
2022-10-05T01:53:44.663Z,92.80
2022-10-05T01:53:54.073Z,92.80
2022-10-05T01:54:03.517Z,92.90
2022-10-05T01:54:12.950Z,93.00
2022-10-05T01:54:22.355Z,93.00
2022-10-05T01:54:31.755Z,93.10
2022-10-05T01:54:41.164Z,93.20
2022-10-05T01:54:50.580Z,93.30
2022-10-05T01:55:00.033Z,93.30
2022-10-05T01:55:09.460Z,93.40
2022-10-05T01:55:18.880Z,93.50
2022-10-05T01:55:28.298Z,93.50
2022-10-05T01:55:37.717Z,93.60
2022-10-05T01:55:47.139Z,93.70
2022-10-05T01:55:56.564Z,93.70
2022-10-05T01:56:15.412Z,93.90
2022-10-05T01:56:24.824Z,94.00
2022-10-05T01:56:34.221Z,94.00
2022-10-05T01:56:44.050Z,94.00
2022-10-05T01:56:53.042Z,94.10
2022-10-05T01:57:02.468Z,94.10
2022-10-05T01:57:11.888Z,94.20
2022-10-05T01:57:21.348Z,94.20
2022-10-05T01:57:30.774Z,94.20
2022-10-05T01:57:40.222Z,94.20
2022-10-05T01:57:49.639Z,94.20
2022-10-05T01:57:59.048Z,94.30
2022-10-05T01:58:08.454Z,94.30
2022-10-05T01:58:17.877Z,94.30
2022-10-05T01:58:27.289Z,94.40
2022-10-05T01:58:36.690Z,94.50
2022-10-05T01:58:55.505Z,94.60
2022-10-05T01:59:04.907Z,94.60
2022-10-05T01:59:14.307Z,94.70
2022-10-05T01:59:23.720Z,94.80
2022-10-05T01:59:33.123Z,94.80
2022-10-05T01:59:42.506Z,94.80
2022-10-05T01:59:51.905Z,94.80
2022-10-05T02:00:01.329Z,94.80
2022-10-05T02:00:10.743Z,94.80
2022-10-05T02:00:20.134Z,94.80
2022-10-05T02:00:29.533Z,94.80
2022-10-05T02:00:38.980Z,94.80
2022-10-05T02:00:48.473Z,94.70
2022-10-05T02:00:57.925Z,94.60
2022-10-05T02:01:07.383Z,94.60
2022-10-05T02:01:16.795Z,94.50
2022-10-05T02:01:26.121Z,94.50
2022-10-05T02:01:44.963Z,94.30
2022-10-05T02:01:54.417Z,94.20
2022-10-05T02:02:03.789Z,94.10
2022-10-05T02:02:13.250Z,94.00
2022-10-05T02:02:22.598Z,93.90
2022-10-05T02:02:32.021Z,93.70
2022-10-05T02:02:41.484Z,93.50
2022-10-05T02:02:50.803Z,93.40
2022-10-05T02:03:00.206Z,93.40
2022-10-05T02:03:09.611Z,93.30
2022-10-05T02:03:19.009Z,93.20
2022-10-05T02:03:28.416Z,93.00
2022-10-05T02:03:37.835Z,93.00
2022-10-05T02:03:47.241Z,92.90
2022-10-05T02:03:56.625Z,92.70
2022-10-05T02:04:37.026Z,92.60
2022-10-05T02:04:56.556Z,92.40
2022-10-05T02:05:00.962Z,92.20
2022-10-05T02:05:01.389Z,92.10
2022-10-05T02:05:02.358Z,91.90
2022-10-05T02:05:03.107Z,91.70
2022-10-05T02:05:11.893Z,91.50
2022-10-05T02:05:21.334Z,91.50
2022-10-05T02:05:30.727Z,91.30
2022-10-05T02:05:40.147Z,91.20
2022-10-05T02:05:49.566Z,91.10
2022-10-05T02:05:59.000Z,91.00
2022-10-05T02:06:08.411Z,90.90
2022-10-05T02:06:17.813Z,90.70
2022-10-05T02:06:27.214Z,90.60
2022-10-05T02:06:36.628Z,90.50
2022-10-05T02:06:55.477Z,90.40
2022-10-05T02:07:04.880Z,90.20
2022-10-05T02:07:14.285Z,90.20
2022-10-05T02:07:23.672Z,90.10
2022-10-05T02:07:33.091Z,90.00
2022-10-05T02:07:42.511Z,90.00
2022-10-05T02:07:51.935Z,89.90
2022-10-05T02:08:01.379Z,89.70
2022-10-05T02:08:10.793Z,89.50
2022-10-05T02:08:20.214Z,89.30
2022-10-05T02:08:29.620Z,89.30
2022-10-05T02:08:39.032Z,89.10